sensor_id;sensor_type;location;lat;lon;timestamp;temperature;humidity
702;DHT22;334;48.808;9.222;2023-03-01T00:00:36;4.40;1.00
702;DHT22;334;48.808;9.222;2023-03-01T00:01:38;4.40;1.00
702;DHT22;334;48.808;9.222;2023-03-01T00:02:39;4.40;1.00
702;DHT22;334;48.808;9.222;2023-03-01T00:03:43;4.40;1.00
702;DHT22;334;48.808;9.222;2023-03-01T00:04:45;4.50;1.00
702;DHT22;334;48.808;9.222;2023-03-01T00:05:47;4.40;1.00
702;DHT22;334;48.808;9.222;2023-03-01T00:06:49;4.40;1.00
702;DHT22;334;48.808;9.222;2023-03-01T00:07:54;4.40;1.00
702;DHT22;334;48.808;9.222;2023-03-01T00:08:56;4.50;1.00
702;DHT22;334;48.808;9.222;2023-03-01T00:09:58;4.50;1.00
702;DHT22;334;48.808;9.222;2023-03-01T00:12:04;4.50;1.00
702;DHT22;334;48.808;9.222;2023-03-01T00:13:06;4.50;1.00
702;DHT22;334;48.808;9.222;2023-03-01T00:14:09;4.50;1.00
702;DHT22;334;48.808;9.222;2023-03-01T00:15:12;4.50;1.00
702;DHT22;334;48.808;9.222;2023-03-01T00:16:24;4.50;1.00
702;DHT22;334;48.808;9.222;2023-03-01T00:18:02;4.50;1.00
702;DHT22;334;48.808;9.222;2023-03-01T00:19:07;4.70;1.00
702;DHT22;334;48.808;9.222;2023-03-01T00:20:11;4.50;1.00
702;DHT22;334;48.808;9.222;2023-03-01T00:21:13;4.40;1.00
702;DHT22;334;48.808;9.222;2023-03-01T00:22:15;4.40;1.00
702;DHT22;334;48.808;9.222;2023-03-01T00:23:17;4.40;1.00
702;DHT22;334;48.808;9.222;2023-03-01T00:24:19;4.40;1.00
702;DHT22;334;48.808;9.222;2023-03-01T00:25:21;4.30;1.00
702;DHT22;334;48.808;9.222;2023-03-01T00:26:24;4.40;1.00
702;DHT22;334;48.808;9.222;2023-03-01T00:27:26;4.30;1.00
702;DHT22;334;48.808;9.222;2023-03-01T00:28:28;4.20;1.00
702;DHT22;334;48.808;9.222;2023-03-01T00:29:30;4.20;1.00
702;DHT22;334;48.808;9.222;2023-03-01T00:30:33;4.20;1.00
702;DHT22;334;48.808;9.222;2023-03-01T00:31:34;4.10;1.00
702;DHT22;334;48.808;9.222;2023-03-01T00:32:36;4.10;1.00
702;DHT22;334;48.808;9.222;2023-03-01T00:33:41;4.10;1.00
702;DHT22;334;48.808;9.222;2023-03-01T00:34:43;4.10;1.00
702;DHT22;334;48.808;9.222;2023-03-01T00:35:58;4.10;1.00
702;DHT22;334;48.808;9.222;2023-03-01T00:36:59;4.10;1.00
702;DHT22;334;48.808;9.222;2023-03-01T00:38:06;4.10;1.00
702;DHT22;334;48.808;9.222;2023-03-01T00:39:12;4.10;1.00
702;DHT22;334;48.808;9.222;2023-03-01T00:40:14;4.00;1.00
702;DHT22;334;48.808;9.222;2023-03-01T00:41:19;4.00;1.00
702;DHT22;334;48.808;9.222;2023-03-01T00:42:21;4.00;1.00
702;DHT22;334;48.808;9.222;2023-03-01T00:43:23;4.00;1.00
702;DHT22;334;48.808;9.222;2023-03-01T00:44:27;4.00;1.00
702;DHT22;334;48.808;9.222;2023-03-01T00:45:29;4.00;1.00
702;DHT22;334;48.808;9.222;2023-03-01T00:46:32;4.00;1.00
702;DHT22;334;48.808;9.222;2023-03-01T00:47:35;4.10;1.00
702;DHT22;334;48.808;9.222;2023-03-01T00:48:38;4.00;1.00
702;DHT22;334;48.808;9.222;2023-03-01T00:49:41;4.00;1.00
702;DHT22;334;48.808;9.222;2023-03-01T00:50:43;4.00;1.00
702;DHT22;334;48.808;9.222;2023-03-01T00:51:45;4.00;1.00
702;DHT22;334;48.808;9.222;2023-03-01T00:52:47;3.80;1.00
702;DHT22;334;48.808;9.222;2023-03-01T00:53:53;4.00;1.00
702;DHT22;334;48.808;9.222;2023-03-01T00:54:55;4.00;1.00
702;DHT22;334;48.808;9.222;2023-03-01T00:55:57;4.00;1.00
702;DHT22;334;48.808;9.222;2023-03-01T00:56:59;4.00;1.00
702;DHT22;334;48.808;9.222;2023-03-01T00:58:01;4.10;1.00
702;DHT22;334;48.808;9.222;2023-03-01T00:59:03;4.10;1.00
702;DHT22;334;48.808;9.222;2023-03-01T01:00:05;4.10;1.00
702;DHT22;334;48.808;9.222;2023-03-01T01:01:16;4.10;1.00
702;DHT22;334;48.808;9.222;2023-03-01T01:02:19;4.10;1.00
702;DHT22;334;48.808;9.222;2023-03-01T01:03:22;4.00;1.00
702;DHT22;334;48.808;9.222;2023-03-01T01:04:26;4.00;1.00
702;DHT22;334;48.808;9.222;2023-03-01T01:05:28;4.00;1.00
702;DHT22;334;48.808;9.222;2023-03-01T01:06:35;4.00;1.00
702;DHT22;334;48.808;9.222;2023-03-01T01:07:38;4.10;1.00
702;DHT22;334;48.808;9.222;2023-03-01T01:08:41;4.10;1.00
702;DHT22;334;48.808;9.222;2023-03-01T01:09:43;4.10;1.00
702;DHT22;334;48.808;9.222;2023-03-01T01:10:45;4.10;1.00
702;DHT22;334;48.808;9.222;2023-03-01T01:11:50;4.10;1.00
702;DHT22;334;48.808;9.222;2023-03-01T01:12:52;4.10;1.00
702;DHT22;334;48.808;9.222;2023-03-01T01:13:56;4.10;1.00
702;DHT22;334;48.808;9.222;2023-03-01T01:14:58;4.10;1.00
702;DHT22;334;48.808;9.222;2023-03-01T01:16:01;4.10;1.00
702;DHT22;334;48.808;9.222;2023-03-01T01:17:03;4.10;1.00
702;DHT22;334;48.808;9.222;2023-03-01T01:18:23;4.10;1.00
702;DHT22;334;48.808;9.222;2023-03-01T01:19:26;3.70;1.00
702;DHT22;334;48.808;9.222;2023-03-01T01:20:27;4.10;1.00
702;DHT22;334;48.808;9.222;2023-03-01T01:21:30;4.10;1.00
702;DHT22;334;48.808;9.222;2023-03-01T01:22:32;4.00;1.00
702;DHT22;334;48.808;9.222;2023-03-01T01:23:35;4.10;1.00
702;DHT22;334;48.808;9.222;2023-03-01T01:24:38;4.10;1.00
702;DHT22;334;48.808;9.222;2023-03-01T01:25:40;4.00;1.00
702;DHT22;334;48.808;9.222;2023-03-01T01:26:42;4.00;1.00
702;DHT22;334;48.808;9.222;2023-03-01T01:27:44;4.00;1.00
702;DHT22;334;48.808;9.222;2023-03-01T01:28:46;4.00;1.00
702;DHT22;334;48.808;9.222;2023-03-01T01:29:48;4.00;1.00
702;DHT22;334;48.808;9.222;2023-03-01T01:30:51;3.60;1.00
702;DHT22;334;48.808;9.222;2023-03-01T01:31:54;3.90;1.00
702;DHT22;334;48.808;9.222;2023-03-01T01:32:56;3.90;1.00
702;DHT22;334;48.808;9.222;2023-03-01T01:34:00;4.00;1.00
702;DHT22;334;48.808;9.222;2023-03-01T01:35:05;3.60;1.00
702;DHT22;334;48.808;9.222;2023-03-01T01:36:11;4.00;1.00
702;DHT22;334;48.808;9.222;2023-03-01T01:37:16;3.90;1.00
702;DHT22;334;48.808;9.222;2023-03-01T01:38:19;4.10;1.00
702;DHT22;334;48.808;9.222;2023-03-01T01:39:22;3.90;1.00
702;DHT22;334;48.808;9.222;2023-03-01T01:40:25;4.10;1.00
702;DHT22;334;48.808;9.222;2023-03-01T01:41:30;3.80;1.00
702;DHT22;334;48.808;9.222;2023-03-01T01:42:33;3.80;1.00
702;DHT22;334;48.808;9.222;2023-03-01T01:43:38;3.80;1.00
702;DHT22;334;48.808;9.222;2023-03-01T01:44:42;3.80;1.00
702;DHT22;334;48.808;9.222;2023-03-01T01:45:44;3.80;1.00
702;DHT22;334;48.808;9.222;2023-03-01T01:47:05;3.70;1.00
702;DHT22;334;48.808;9.222;2023-03-01T01:48:13;3.70;1.00
702;DHT22;334;48.808;9.222;2023-03-01T01:49:36;3.70;1.00
702;DHT22;334;48.808;9.222;2023-03-01T01:50:42;3.60;1.00
702;DHT22;334;48.808;9.222;2023-03-01T01:51:49;3.70;1.00
702;DHT22;334;48.808;9.222;2023-03-01T01:52:54;3.60;1.00
702;DHT22;334;48.808;9.222;2023-03-01T01:53:59;3.60;1.00
702;DHT22;334;48.808;9.222;2023-03-01T01:55:06;3.60;1.00
702;DHT22;334;48.808;9.222;2023-03-01T01:56:11;3.60;1.00
702;DHT22;334;48.808;9.222;2023-03-01T01:57:19;3.50;1.00
702;DHT22;334;48.808;9.222;2023-03-01T01:58:26;3.50;1.00
702;DHT22;334;48.808;9.222;2023-03-01T01:59:31;3.60;1.00
702;DHT22;334;48.808;9.222;2023-03-01T02:00:35;3.50;1.00
702;DHT22;334;48.808;9.222;2023-03-01T02:01:40;3.60;1.00
702;DHT22;334;48.808;9.222;2023-03-01T02:02:45;3.10;1.00
702;DHT22;334;48.808;9.222;2023-03-01T02:03:48;3.60;1.00
702;DHT22;334;48.808;9.222;2023-03-01T02:04:55;3.60;1.00
702;DHT22;334;48.808;9.222;2023-03-01T02:06:31;3.60;1.00
702;DHT22;334;48.808;9.222;2023-03-01T02:07:34;3.70;1.00
702;DHT22;334;48.808;9.222;2023-03-01T02:08:38;3.70;1.00
702;DHT22;334;48.808;9.222;2023-03-01T02:09:43;3.90;1.00
702;DHT22;334;48.808;9.222;2023-03-01T02:10:48;3.40;1.00
702;DHT22;334;48.808;9.222;2023-03-01T02:11:51;3.70;1.00
702;DHT22;334;48.808;9.222;2023-03-01T02:12:54;3.60;1.00
702;DHT22;334;48.808;9.222;2023-03-01T02:13:57;3.70;1.00
702;DHT22;334;48.808;9.222;2023-03-01T02:14:59;3.70;1.00
702;DHT22;334;48.808;9.222;2023-03-01T02:16:05;3.60;1.00
702;DHT22;334;48.808;9.222;2023-03-01T02:17:11;3.70;1.00
702;DHT22;334;48.808;9.222;2023-03-01T02:18:29;3.80;1.00
702;DHT22;334;48.808;9.222;2023-03-01T02:22:27;3.70;1.00
702;DHT22;334;48.808;9.222;2023-03-01T02:23:30;3.40;1.00
702;DHT22;334;48.808;9.222;2023-03-01T02:24:48;3.80;1.00
702;DHT22;334;48.808;9.222;2023-03-01T02:26:01;3.80;1.00
702;DHT22;334;48.808;9.222;2023-03-01T02:27:07;3.80;1.00
702;DHT22;334;48.808;9.222;2023-03-01T02:29:18;3.80;1.00
702;DHT22;334;48.808;9.222;2023-03-01T02:30:22;3.80;1.00
702;DHT22;334;48.808;9.222;2023-03-01T02:31:24;3.80;1.00
702;DHT22;334;48.808;9.222;2023-03-01T02:32:44;3.80;1.00
702;DHT22;334;48.808;9.222;2023-03-01T02:33:47;3.80;1.00
702;DHT22;334;48.808;9.222;2023-03-01T02:34:51;3.80;1.00
702;DHT22;334;48.808;9.222;2023-03-01T02:35:57;3.80;1.00
702;DHT22;334;48.808;9.222;2023-03-01T02:37:07;3.80;1.00
702;DHT22;334;48.808;9.222;2023-03-01T02:38:10;3.90;1.00
702;DHT22;334;48.808;9.222;2023-03-01T02:39:15;3.80;1.00
702;DHT22;334;48.808;9.222;2023-03-01T02:40:19;3.90;1.00
702;DHT22;334;48.808;9.222;2023-03-01T02:41:25;3.90;1.00
702;DHT22;334;48.808;9.222;2023-03-01T02:42:33;4.00;1.00
702;DHT22;334;48.808;9.222;2023-03-01T02:43:39;3.90;1.00
702;DHT22;334;48.808;9.222;2023-03-01T02:44:41;3.90;1.00
702;DHT22;334;48.808;9.222;2023-03-01T02:45:51;3.90;1.00
702;DHT22;334;48.808;9.222;2023-03-01T02:46:56;3.70;1.00
702;DHT22;334;48.808;9.222;2023-03-01T02:47:58;3.90;1.00
702;DHT22;334;48.808;9.222;2023-03-01T02:49:00;3.90;1.00
702;DHT22;334;48.808;9.222;2023-03-01T02:50:13;4.00;1.00
702;DHT22;334;48.808;9.222;2023-03-01T02:51:41;3.90;1.00
702;DHT22;334;48.808;9.222;2023-03-01T02:53:04;3.80;1.00
702;DHT22;334;48.808;9.222;2023-03-01T02:54:42;3.60;1.00
702;DHT22;334;48.808;9.222;2023-03-01T02:55:46;3.90;1.00
702;DHT22;334;48.808;9.222;2023-03-01T02:56:48;4.00;1.00
702;DHT22;334;48.808;9.222;2023-03-01T02:57:51;3.90;1.00
702;DHT22;334;48.808;9.222;2023-03-01T02:58:53;3.90;1.00
702;DHT22;334;48.808;9.222;2023-03-01T02:59:56;4.00;1.00
702;DHT22;334;48.808;9.222;2023-03-01T03:00:58;3.90;1.00
702;DHT22;334;48.808;9.222;2023-03-01T03:02:02;3.90;1.00
702;DHT22;334;48.808;9.222;2023-03-01T03:03:05;3.90;1.00
702;DHT22;334;48.808;9.222;2023-03-01T03:04:10;3.90;1.00
702;DHT22;334;48.808;9.222;2023-03-01T03:05:19;3.90;1.00
702;DHT22;334;48.808;9.222;2023-03-01T03:06:21;3.90;1.00
702;DHT22;334;48.808;9.222;2023-03-01T03:07:23;3.90;1.00
702;DHT22;334;48.808;9.222;2023-03-01T03:08:25;3.90;1.00
702;DHT22;334;48.808;9.222;2023-03-01T03:09:27;3.90;1.00
702;DHT22;334;48.808;9.222;2023-03-01T03:10:34;3.90;1.00
702;DHT22;334;48.808;9.222;2023-03-01T03:11:37;4.00;1.00
702;DHT22;334;48.808;9.222;2023-03-01T03:12:41;4.00;1.00
702;DHT22;334;48.808;9.222;2023-03-01T03:13:45;3.90;1.00
702;DHT22;334;48.808;9.222;2023-03-01T03:14:51;3.90;1.00
702;DHT22;334;48.808;9.222;2023-03-01T03:15:52;3.90;1.00
702;DHT22;334;48.808;9.222;2023-03-01T03:16:54;4.00;1.00
702;DHT22;334;48.808;9.222;2023-03-01T03:18:18;4.00;1.00
702;DHT22;334;48.808;9.222;2023-03-01T03:19:20;4.00;1.00
702;DHT22;334;48.808;9.222;2023-03-01T03:20:26;3.90;1.00
702;DHT22;334;48.808;9.222;2023-03-01T03:21:29;3.90;1.00
702;DHT22;334;48.808;9.222;2023-03-01T03:22:31;4.00;1.00
702;DHT22;334;48.808;9.222;2023-03-01T03:23:36;3.90;1.00
702;DHT22;334;48.808;9.222;2023-03-01T03:24:38;4.00;1.00
702;DHT22;334;48.808;9.222;2023-03-01T03:25:40;4.00;1.00
702;DHT22;334;48.808;9.222;2023-03-01T03:26:42;4.00;1.00
702;DHT22;334;48.808;9.222;2023-03-01T03:27:47;4.00;1.00
702;DHT22;334;48.808;9.222;2023-03-01T03:28:49;4.00;1.00
702;DHT22;334;48.808;9.222;2023-03-01T03:29:51;4.00;1.00
702;DHT22;334;48.808;9.222;2023-03-01T03:30:52;4.30;1.00
702;DHT22;334;48.808;9.222;2023-03-01T03:31:55;4.10;1.00
702;DHT22;334;48.808;9.222;2023-03-01T03:32:58;4.20;1.00
702;DHT22;334;48.808;9.222;2023-03-01T03:34:00;4.10;1.00
702;DHT22;334;48.808;9.222;2023-03-01T03:35:04;4.10;1.00
702;DHT22;334;48.808;9.222;2023-03-01T03:36:17;4.10;1.00
702;DHT22;334;48.808;9.222;2023-03-01T03:37:20;4.10;1.00
702;DHT22;334;48.808;9.222;2023-03-01T03:38:44;4.10;1.00
702;DHT22;334;48.808;9.222;2023-03-01T03:39:47;4.10;1.00
702;DHT22;334;48.808;9.222;2023-03-01T03:41:00;4.10;1.00
702;DHT22;334;48.808;9.222;2023-03-01T03:42:03;3.70;1.00
702;DHT22;334;48.808;9.222;2023-03-01T03:43:11;4.20;1.00
702;DHT22;334;48.808;9.222;2023-03-01T03:44:13;4.20;1.00
702;DHT22;334;48.808;9.222;2023-03-01T03:45:16;4.20;1.00
702;DHT22;334;48.808;9.222;2023-03-01T03:46:20;4.20;1.00
702;DHT22;334;48.808;9.222;2023-03-01T03:47:23;4.20;1.00
702;DHT22;334;48.808;9.222;2023-03-01T03:48:25;4.20;1.00
702;DHT22;334;48.808;9.222;2023-03-01T03:49:27;4.20;1.00
702;DHT22;334;48.808;9.222;2023-03-01T03:50:32;4.20;1.00
702;DHT22;334;48.808;9.222;2023-03-01T03:51:34;4.20;1.00
702;DHT22;334;48.808;9.222;2023-03-01T03:52:36;4.30;1.00
702;DHT22;334;48.808;9.222;2023-03-01T03:53:38;4.30;1.00
702;DHT22;334;48.808;9.222;2023-03-01T03:54:40;4.20;1.00
702;DHT22;334;48.808;9.222;2023-03-01T03:55:42;4.10;1.00
702;DHT22;334;48.808;9.222;2023-03-01T03:56:46;3.80;1.00
702;DHT22;334;48.808;9.222;2023-03-01T03:57:48;4.30;1.00
702;DHT22;334;48.808;9.222;2023-03-01T03:58:53;4.30;1.00
702;DHT22;334;48.808;9.222;2023-03-01T03:59:55;4.40;1.00
702;DHT22;334;48.808;9.222;2023-03-01T04:00:57;4.40;1.00
702;DHT22;334;48.808;9.222;2023-03-01T04:01:59;4.40;1.00
702;DHT22;334;48.808;9.222;2023-03-01T04:03:01;4.40;1.00
702;DHT22;334;48.808;9.222;2023-03-01T04:04:03;4.40;1.00
702;DHT22;334;48.808;9.222;2023-03-01T04:05:06;4.40;1.00
702;DHT22;334;48.808;9.222;2023-03-01T04:06:11;4.40;1.00
702;DHT22;334;48.808;9.222;2023-03-01T04:07:13;4.40;1.00
702;DHT22;334;48.808;9.222;2023-03-01T04:08:15;4.50;1.00
702;DHT22;334;48.808;9.222;2023-03-01T04:09:17;4.50;1.00
702;DHT22;334;48.808;9.222;2023-03-01T04:10:19;4.50;1.00
702;DHT22;334;48.808;9.222;2023-03-01T04:11:21;4.50;1.00
702;DHT22;334;48.808;9.222;2023-03-01T04:12:30;4.50;1.00
702;DHT22;334;48.808;9.222;2023-03-01T04:13:32;4.50;1.00
702;DHT22;334;48.808;9.222;2023-03-01T04:14:34;4.50;1.00
702;DHT22;334;48.808;9.222;2023-03-01T04:15:36;4.60;1.00
702;DHT22;334;48.808;9.222;2023-03-01T04:17:10;4.60;1.00
702;DHT22;334;48.808;9.222;2023-03-01T04:18:14;4.60;1.00
702;DHT22;334;48.808;9.222;2023-03-01T04:19:16;4.50;1.00
702;DHT22;334;48.808;9.222;2023-03-01T04:20:21;4.50;1.00
702;DHT22;334;48.808;9.222;2023-03-01T04:21:26;4.50;1.00
702;DHT22;334;48.808;9.222;2023-03-01T04:22:28;4.50;1.00
702;DHT22;334;48.808;9.222;2023-03-01T04:23:33;4.50;1.00
702;DHT22;334;48.808;9.222;2023-03-01T04:24:36;4.50;1.00
702;DHT22;334;48.808;9.222;2023-03-01T04:25:54;4.50;1.00
702;DHT22;334;48.808;9.222;2023-03-01T04:26:56;4.40;1.00
702;DHT22;334;48.808;9.222;2023-03-01T04:27:58;4.40;1.00
702;DHT22;334;48.808;9.222;2023-03-01T04:29:00;4.40;1.00
702;DHT22;334;48.808;9.222;2023-03-01T04:30:06;4.40;1.00
702;DHT22;334;48.808;9.222;2023-03-01T04:31:17;4.50;1.00
702;DHT22;334;48.808;9.222;2023-03-01T04:32:23;4.50;1.00
702;DHT22;334;48.808;9.222;2023-03-01T04:33:25;4.50;1.00
702;DHT22;334;48.808;9.222;2023-03-01T04:34:29;4.60;1.00
702;DHT22;334;48.808;9.222;2023-03-01T04:35:31;4.60;1.00
702;DHT22;334;48.808;9.222;2023-03-01T04:36:35;4.60;1.00
702;DHT22;334;48.808;9.222;2023-03-01T04:37:38;4.60;1.00
702;DHT22;334;48.808;9.222;2023-03-01T04:38:41;4.60;1.00
702;DHT22;334;48.808;9.222;2023-03-01T04:39:43;4.60;1.00
702;DHT22;334;48.808;9.222;2023-03-01T04:40:48;4.60;1.00
702;DHT22;334;48.808;9.222;2023-03-01T04:41:50;4.70;1.00
702;DHT22;334;48.808;9.222;2023-03-01T04:42:52;4.70;1.00
702;DHT22;334;48.808;9.222;2023-03-01T04:43:54;4.70;1.00
702;DHT22;334;48.808;9.222;2023-03-01T04:44:56;4.70;1.00
702;DHT22;334;48.808;9.222;2023-03-01T04:46:03;4.70;1.00
702;DHT22;334;48.808;9.222;2023-03-01T04:47:05;4.70;1.00
702;DHT22;334;48.808;9.222;2023-03-01T04:48:07;4.70;1.00
702;DHT22;334;48.808;9.222;2023-03-01T04:49:11;4.70;1.00
702;DHT22;334;48.808;9.222;2023-03-01T04:50:16;4.70;1.00
702;DHT22;334;48.808;9.222;2023-03-01T04:51:18;4.70;1.00
702;DHT22;334;48.808;9.222;2023-03-01T04:52:21;4.70;1.00
702;DHT22;334;48.808;9.222;2023-03-01T04:53:22;4.70;1.00
702;DHT22;334;48.808;9.222;2023-03-01T04:54:25;4.80;1.00
702;DHT22;334;48.808;9.222;2023-03-01T04:55:27;4.80;1.00
702;DHT22;334;48.808;9.222;2023-03-01T04:56:29;4.80;1.00
702;DHT22;334;48.808;9.222;2023-03-01T04:57:33;4.80;1.00
702;DHT22;334;48.808;9.222;2023-03-01T04:58:35;4.80;1.00
702;DHT22;334;48.808;9.222;2023-03-01T04:59:37;4.80;1.00
702;DHT22;334;48.808;9.222;2023-03-01T05:00:39;4.80;1.00
702;DHT22;334;48.808;9.222;2023-03-01T05:01:41;4.80;1.00
702;DHT22;334;48.808;9.222;2023-03-01T05:02:49;4.80;1.00
702;DHT22;334;48.808;9.222;2023-03-01T05:03:54;4.80;1.00
702;DHT22;334;48.808;9.222;2023-03-01T05:04:56;4.80;1.00
702;DHT22;334;48.808;9.222;2023-03-01T05:05:59;4.80;1.00
702;DHT22;334;48.808;9.222;2023-03-01T05:07:01;4.80;1.00
702;DHT22;334;48.808;9.222;2023-03-01T05:08:06;4.90;1.00
702;DHT22;334;48.808;9.222;2023-03-01T05:09:08;4.80;1.00
702;DHT22;334;48.808;9.222;2023-03-01T05:10:11;4.90;1.00
702;DHT22;334;48.808;9.222;2023-03-01T05:11:13;4.80;1.00
702;DHT22;334;48.808;9.222;2023-03-01T05:12:16;4.90;1.00
702;DHT22;334;48.808;9.222;2023-03-01T05:13:19;4.80;1.00
702;DHT22;334;48.808;9.222;2023-03-01T05:14:24;4.80;1.00
702;DHT22;334;48.808;9.222;2023-03-01T05:15:28;4.90;1.00
702;DHT22;334;48.808;9.222;2023-03-01T05:16:30;4.80;1.00
702;DHT22;334;48.808;9.222;2023-03-01T05:17:36;4.80;1.00
702;DHT22;334;48.808;9.222;2023-03-01T05:18:40;4.80;1.00
702;DHT22;334;48.808;9.222;2023-03-01T05:19:41;4.80;1.00
702;DHT22;334;48.808;9.222;2023-03-01T05:20:44;4.80;1.00
702;DHT22;334;48.808;9.222;2023-03-01T05:21:46;4.80;1.00
702;DHT22;334;48.808;9.222;2023-03-01T05:23:04;4.80;1.00
702;DHT22;334;48.808;9.222;2023-03-01T05:24:10;4.80;1.00
702;DHT22;334;48.808;9.222;2023-03-01T05:25:16;4.80;1.00
702;DHT22;334;48.808;9.222;2023-03-01T05:26:20;4.80;1.00
702;DHT22;334;48.808;9.222;2023-03-01T05:27:40;4.80;1.00
702;DHT22;334;48.808;9.222;2023-03-01T05:28:42;4.80;1.00
702;DHT22;334;48.808;9.222;2023-03-01T05:29:44;4.80;1.00
702;DHT22;334;48.808;9.222;2023-03-01T05:30:47;4.80;1.00
702;DHT22;334;48.808;9.222;2023-03-01T05:31:59;4.80;1.00
702;DHT22;334;48.808;9.222;2023-03-01T05:33:02;4.70;1.00
702;DHT22;334;48.808;9.222;2023-03-01T05:34:06;4.80;1.00
702;DHT22;334;48.808;9.222;2023-03-01T05:35:12;4.80;1.00
702;DHT22;334;48.808;9.222;2023-03-01T05:36:19;4.80;1.00
702;DHT22;334;48.808;9.222;2023-03-01T05:37:21;4.70;1.00
702;DHT22;334;48.808;9.222;2023-03-01T05:38:23;4.70;1.00
702;DHT22;334;48.808;9.222;2023-03-01T05:39:27;4.70;1.00
702;DHT22;334;48.808;9.222;2023-03-01T05:40:29;4.70;1.00
702;DHT22;334;48.808;9.222;2023-03-01T05:41:33;4.70;1.00
702;DHT22;334;48.808;9.222;2023-03-01T05:42:35;4.80;1.00
702;DHT22;334;48.808;9.222;2023-03-01T05:43:38;4.80;1.00
702;DHT22;334;48.808;9.222;2023-03-01T05:44:41;4.80;1.00
702;DHT22;334;48.808;9.222;2023-03-01T05:45:43;4.80;1.00
702;DHT22;334;48.808;9.222;2023-03-01T05:46:49;4.70;1.00
702;DHT22;334;48.808;9.222;2023-03-01T05:47:51;4.30;1.00
702;DHT22;334;48.808;9.222;2023-03-01T05:48:53;4.70;1.00
702;DHT22;334;48.808;9.222;2023-03-01T05:49:57;4.70;1.00
702;DHT22;334;48.808;9.222;2023-03-01T05:51:00;4.70;1.00
702;DHT22;334;48.808;9.222;2023-03-01T05:52:02;4.70;1.00
702;DHT22;334;48.808;9.222;2023-03-01T05:53:07;4.70;1.00
702;DHT22;334;48.808;9.222;2023-03-01T05:54:10;4.70;1.00
702;DHT22;334;48.808;9.222;2023-03-01T05:55:12;4.70;1.00
702;DHT22;334;48.808;9.222;2023-03-01T05:56:15;4.70;1.00
702;DHT22;334;48.808;9.222;2023-03-01T05:57:20;4.70;1.00
702;DHT22;334;48.808;9.222;2023-03-01T05:58:24;4.70;1.00
702;DHT22;334;48.808;9.222;2023-03-01T05:59:29;4.60;1.00
702;DHT22;334;48.808;9.222;2023-03-01T06:00:31;4.70;1.00
702;DHT22;334;48.808;9.222;2023-03-01T06:01:35;4.60;1.00
702;DHT22;334;48.808;9.222;2023-03-01T06:02:37;4.60;1.00
702;DHT22;334;48.808;9.222;2023-03-01T06:03:41;4.60;1.00
702;DHT22;334;48.808;9.222;2023-03-01T06:04:43;4.60;1.00
702;DHT22;334;48.808;9.222;2023-03-01T06:05:45;4.60;1.00
702;DHT22;334;48.808;9.222;2023-03-01T06:06:49;4.60;1.00
702;DHT22;334;48.808;9.222;2023-03-01T06:07:51;4.60;1.00
702;DHT22;334;48.808;9.222;2023-03-01T06:08:56;4.60;1.00
702;DHT22;334;48.808;9.222;2023-03-01T06:09:58;4.60;1.00
702;DHT22;334;48.808;9.222;2023-03-01T06:11:00;4.60;1.00
702;DHT22;334;48.808;9.222;2023-03-01T06:12:02;4.60;1.00
702;DHT22;334;48.808;9.222;2023-03-01T06:13:04;4.60;1.00
702;DHT22;334;48.808;9.222;2023-03-01T06:14:07;4.60;1.00
702;DHT22;334;48.808;9.222;2023-03-01T06:15:13;4.60;1.00
702;DHT22;334;48.808;9.222;2023-03-01T06:16:16;4.60;1.00
702;DHT22;334;48.808;9.222;2023-03-01T06:17:18;4.60;1.00
702;DHT22;334;48.808;9.222;2023-03-01T06:18:20;4.60;1.00
702;DHT22;334;48.808;9.222;2023-03-01T06:19:21;4.60;1.00
702;DHT22;334;48.808;9.222;2023-03-01T06:20:25;4.60;1.00
702;DHT22;334;48.808;9.222;2023-03-01T06:21:27;4.60;1.00
702;DHT22;334;48.808;9.222;2023-03-01T06:22:29;4.60;1.00
702;DHT22;334;48.808;9.222;2023-03-01T06:23:32;4.60;1.00
702;DHT22;334;48.808;9.222;2023-03-01T06:24:34;4.60;1.00
702;DHT22;334;48.808;9.222;2023-03-01T06:25:37;4.60;1.00
702;DHT22;334;48.808;9.222;2023-03-01T06:26:39;4.60;1.00
702;DHT22;334;48.808;9.222;2023-03-01T06:27:41;4.30;1.00
702;DHT22;334;48.808;9.222;2023-03-01T06:28:43;4.60;1.00
702;DHT22;334;48.808;9.222;2023-03-01T06:29:51;4.60;1.00
702;DHT22;334;48.808;9.222;2023-03-01T06:30:53;4.70;1.00
702;DHT22;334;48.808;9.222;2023-03-01T06:31:55;4.70;1.00
702;DHT22;334;48.808;9.222;2023-03-01T06:32:57;4.60;1.00
702;DHT22;334;48.808;9.222;2023-03-01T06:34:02;4.60;1.00
702;DHT22;334;48.808;9.222;2023-03-01T06:35:04;4.60;1.00
702;DHT22;334;48.808;9.222;2023-03-01T06:36:07;4.60;1.00
702;DHT22;334;48.808;9.222;2023-03-01T06:37:12;4.70;1.00
702;DHT22;334;48.808;9.222;2023-03-01T06:38:15;4.70;1.00
702;DHT22;334;48.808;9.222;2023-03-01T06:39:24;4.70;1.00
702;DHT22;334;48.808;9.222;2023-03-01T06:40:27;4.40;1.00
702;DHT22;334;48.808;9.222;2023-03-01T06:41:30;4.70;1.00
702;DHT22;334;48.808;9.222;2023-03-01T06:42:32;4.60;1.00
702;DHT22;334;48.808;9.222;2023-03-01T06:43:34;4.70;1.00
702;DHT22;334;48.808;9.222;2023-03-01T06:44:36;4.70;1.00
702;DHT22;334;48.808;9.222;2023-03-01T06:45:37;4.60;1.00
702;DHT22;334;48.808;9.222;2023-03-01T06:46:40;4.60;1.00
702;DHT22;334;48.808;9.222;2023-03-01T06:47:42;4.60;1.00
702;DHT22;334;48.808;9.222;2023-03-01T06:48:43;4.60;1.00
702;DHT22;334;48.808;9.222;2023-03-01T06:49:45;4.70;1.00
702;DHT22;334;48.808;9.222;2023-03-01T06:50:47;4.70;1.00
702;DHT22;334;48.808;9.222;2023-03-01T06:51:48;4.70;1.00
702;DHT22;334;48.808;9.222;2023-03-01T06:52:55;4.70;1.00
702;DHT22;334;48.808;9.222;2023-03-01T06:53:57;4.70;1.00
702;DHT22;334;48.808;9.222;2023-03-01T06:55:02;4.60;1.00
702;DHT22;334;48.808;9.222;2023-03-01T06:56:04;4.60;1.00
702;DHT22;334;48.808;9.222;2023-03-01T06:57:07;4.60;1.00
702;DHT22;334;48.808;9.222;2023-03-01T06:58:09;4.60;1.00
702;DHT22;334;48.808;9.222;2023-03-01T06:59:12;4.60;1.00
702;DHT22;334;48.808;9.222;2023-03-01T07:00:14;4.60;1.00
702;DHT22;334;48.808;9.222;2023-03-01T07:01:16;4.70;1.00
702;DHT22;334;48.808;9.222;2023-03-01T07:02:18;4.60;1.00
702;DHT22;334;48.808;9.222;2023-03-01T07:03:20;4.60;1.00
702;DHT22;334;48.808;9.222;2023-03-01T07:04:21;4.60;1.00
702;DHT22;334;48.808;9.222;2023-03-01T07:05:23;4.60;1.00
702;DHT22;334;48.808;9.222;2023-03-01T07:06:25;4.60;1.00
702;DHT22;334;48.808;9.222;2023-03-01T07:07:27;4.60;1.00
702;DHT22;334;48.808;9.222;2023-03-01T07:08:29;4.60;1.00
702;DHT22;334;48.808;9.222;2023-03-01T07:09:30;4.60;1.00
702;DHT22;334;48.808;9.222;2023-03-01T07:10:32;4.50;1.00
702;DHT22;334;48.808;9.222;2023-03-01T07:11:34;4.50;1.00
702;DHT22;334;48.808;9.222;2023-03-01T07:12:36;4.50;1.00
702;DHT22;334;48.808;9.222;2023-03-01T07:13:38;4.60;1.00
702;DHT22;334;48.808;9.222;2023-03-01T07:14:40;4.60;1.00
702;DHT22;334;48.808;9.222;2023-03-01T07:15:41;4.60;1.00
702;DHT22;334;48.808;9.222;2023-03-01T07:16:43;4.50;1.00
702;DHT22;334;48.808;9.222;2023-03-01T07:17:45;4.50;1.00
702;DHT22;334;48.808;9.222;2023-03-01T07:18:49;4.50;1.00
702;DHT22;334;48.808;9.222;2023-03-01T07:19:50;4.50;1.00
702;DHT22;334;48.808;9.222;2023-03-01T07:20:52;4.10;1.00
702;DHT22;334;48.808;9.222;2023-03-01T07:21:54;4.50;1.00
702;DHT22;334;48.808;9.222;2023-03-01T07:22:58;4.50;1.00
702;DHT22;334;48.808;9.222;2023-03-01T07:24:00;4.40;1.00
702;DHT22;334;48.808;9.222;2023-03-01T07:25:01;4.30;1.00
702;DHT22;334;48.808;9.222;2023-03-01T07:26:03;4.30;1.00
702;DHT22;334;48.808;9.222;2023-03-01T07:27:06;4.30;1.00
702;DHT22;334;48.808;9.222;2023-03-01T07:28:08;4.30;1.00
702;DHT22;334;48.808;9.222;2023-03-01T07:29:10;4.30;1.00
702;DHT22;334;48.808;9.222;2023-03-01T07:30:13;4.30;1.00
702;DHT22;334;48.808;9.222;2023-03-01T07:31:14;4.40;1.00
702;DHT22;334;48.808;9.222;2023-03-01T07:32:17;4.30;1.00
702;DHT22;334;48.808;9.222;2023-03-01T07:33:24;4.30;1.00